Time;durP1;ratioP1;P1;durP2;ratioP2;P2;SDS_P1;SDS_P2;PMS_P1;PMS_P2;Temp;Humidity;BMP_temperature;BMP_pressure;BME280_temperature;BME280_humidity;BME280_pressure;Samples;Min_cycle;Max_cycle;Signal;HPM_P1;HPM_P2
2022/05/06 00:21:27;;;;;;;3.90;0.80;;;20.70;42.20;;;;;;5075759;27;20388;-77
2022/05/06 00:23:54;;;;;;;4.28;1.27;;;21.30;42.70;;;;;;5088022;28;20078;-76
2022/05/06 00:26:21;;;;;;;4.43;0.93;;;21.50;42.30;;;;;;5083568;28;20059;-69
2022/05/06 00:38:19;;;;;;;4.38;0.85;;;24.10;34.50;;;;;;5087649;27;20401;-71
2022/05/06 00:40:46;;;;;;;20.00;1.58;;;22.30;35.40;;;;;;5088843;28;20063;-73
2022/05/06 00:43:13;;;;;;;2.85;1.15;;;20.30;39.90;;;;;;5082534;28;20364;-79
2022/05/06 00:45:56;;;;;;;6.65;1.20;;;20.30;37.00;;;;;;5085884;28;20032;-77
2022/05/06 00:48:27;;;;;;;2.30;0.52;;;20.50;38.20;;;;;;5078987;28;20021;-77
2022/05/06 00:50:59;;;;;;;3.35;0.88;;;20.10;39.40;;;;;;5088879;28;20051;-80
2022/05/06 00:53:26;;;;;;;3.58;1.10;;;20.40;38.70;;;;;;5079534;28;20560;-79
2022/05/06 00:55:56;;;;;;;3.38;0.95;;;20.40;36.00;;;;;;5080654;28;20115;-73
2022/05/06 00:58:24;;;;;;;2.65;0.57;;;20.40;36.90;;;;;;5084482;28;20071;-75
2022/05/06 01:00:51;;;;;;;3.17;0.73;;;20.30;38.90;;;;;;5086728;28;20031;-75
2022/05/06 01:03:18;;;;;;;2.15;0.63;;;20.60;37.10;;;;;;5087447;28;20036;-75
2022/05/06 01:05:45;;;;;;;2.50;0.80;;;20.50;37.20;;;;;;5088819;28;20028;-74
2022/05/06 01:08:13;;;;;;;3.25;0.82;;;20.80;36.30;;;;;;5089458;28;20389;-74
2022/05/06 01:10:41;;;;;;;1.98;0.80;;;20.80;35.70;;;;;;5089723;28;20024;-74
2022/05/06 01:13:09;;;;;;;2.72;0.60;;;20.80;35.70;;;;;;5088738;28;20027;-73
2022/05/06 01:15:36;;;;;;;3.38;0.70;;;20.80;36.50;;;;;;5089055;28;20029;-74
2022/05/06 01:18:04;;;;;;;2.42;0.70;;;20.90;39.00;;;;;;5088033;28;20106;-75
2022/05/06 01:20:33;;;;;;;5.22;0.70;;;21.10;36.10;;;;;;5089188;28;20489;-75
2022/05/06 01:23:00;;;;;;;3.35;0.90;;;21.20;34.20;;;;;;5067842;28;20021;-75
2022/05/06 01:25:28;;;;;;;2.45;0.60;;;21.40;38.50;;;;;;5083758;28;20117;-74
2022/05/06 01:28:04;;;;;;;14.05;1.35;;;21.70;36.60;;;;;;5086040;28;20024;-75
2022/05/06 01:30:37;;;;;;;1.77;0.80;;;21.60;35.10;;;;;;5088949;28;20359;-74
2022/05/06 01:33:09;;;;;;;2.60;0.88;;;21.30;35.30;;;;;;5081757;28;20033;-75
2022/05/06 01:35:46;;;;;;;1.88;0.63;;;21.20;34.40;;;;;;5086244;28;20021;-75
2022/05/06 01:38:19;;;;;;;4.57;0.80;;;21.10;35.20;;;;;;5087678;28;20068;-74
2022/05/06 01:40:51;;;;;;;3.53;1.20;;;21.20;34.90;;;;;;5088949;28;20032;-74
2022/05/06 01:43:19;;;;;;;3.35;0.80;;;21.70;35.20;;;;;;5067352;28;20033;-74
2022/05/06 01:45:47;;;;;;;1.92;0.80;;;22.00;33.50;;;;;;5069816;28;20555;-75
2022/05/06 01:48:16;;;;;;;2.67;0.82;;;21.90;33.00;;;;;;5065280;28;20028;-75
2022/05/06 01:50:43;;;;;;;3.35;0.88;;;21.50;33.10;;;;;;5073545;28;20021;-74
2022/05/06 01:53:14;;;;;;;2.50;0.73;;;21.70;34.00;;;;;;5057334;28;20417;-75
2022/05/06 01:55:41;;;;;;;4.10;0.70;;;21.50;34.80;;;;;;5073832;28;20029;-75
2022/05/06 01:58:09;;;;;;;3.67;0.98;;;21.60;34.40;;;;;;5075049;28;20083;-75
2022/05/06 02:00:36;;;;;;;2.25;0.60;;;21.80;35.00;;;;;;5075252;28;20032;-75
2022/05/06 02:05:16;;;;;;;4.93;1.40;;;22.00;33.70;;;;;;5075018;28;20029;-75
2022/05/06 02:05:53;;;;;;;2.22;0.85;;;22.40;33.50;;;;;;5074753;28;20029;-74
2022/05/06 02:08:20;;;;;;;2.30;0.68;;;22.40;32.40;;;;;;5065243;28;20021;-74
2022/05/06 02:10:48;;;;;;;2.67;0.77;;;22.10;33.10;;;;;;5073346;28;20028;-75
2022/05/06 02:13:15;;;;;;;1.95;0.70;;;22.30;33.80;;;;;;5075084;28;20383;-74
2022/05/06 02:15:42;;;;;;;1.92;0.70;;;22.20;32.30;;;;;;5074601;28;20438;-74
2022/05/06 02:18:09;;;;;;;2.55;0.60;;;22.00;32.30;;;;;;5073681;28;20513;-74
2022/05/06 02:20:37;;;;;;;3.28;0.70;;;22.00;33.80;;;;;;5074804;28;20077;-74
2022/05/06 02:23:04;;;;;;;2.30;0.80;;;21.90;33.70;;;;;;5074726;28;20040;-74
2022/05/06 02:25:32;;;;;;;2.05;0.60;;;22.40;34.10;;;;;;5068264;28;20390;-75
2022/05/06 02:27:59;;;;;;;2.95;0.70;;;22.70;32.20;;;;;;5062264;28;20035;-75
2022/05/06 02:33:23;;;;;;;5.72;1.10;;;22.40;33.60;;;;;;5074585;28;20505;-74
2022/05/06 02:35:51;;;;;;;2.20;0.80;;;22.70;32.70;;;;;;5073130;28;20103;-74
2022/05/06 02:38:19;;;;;;;2.15;0.82;;;22.90;33.50;;;;;;5073223;28;20515;-74
2022/05/06 02:40:47;;;;;;;2.25;0.75;;;23.10;32.30;;;;;;5068408;28;20024;-74
2022/05/06 02:43:14;;;;;;;3.55;0.82;;;23.30;30.70;;;;;;5066306;28;20493;-75
2022/05/06 02:45:41;;;;;;;1.65;0.70;;;23.50;35.00;;;;;;5073881;28;20052;-75
2022/05/06 02:48:09;;;;;;;1.95;0.50;;;23.60;30.30;;;;;;5073005;28;20028;-75
2022/05/06 02:50:36;;;;;;;1.33;0.60;;;23.20;31.50;;;;;;5073055;28;20028;-75
2022/05/06 02:53:04;;;;;;;1.67;0.80;;;23.70;34.00;;;;;;5060875;28;20025;-75
2022/05/06 02:55:32;;;;;;;2.53;0.68;;;23.70;32.70;;;;;;5072830;28;20052;-76
2022/05/06 02:57:59;;;;;;;3.30;0.68;;;23.90;33.30;;;;;;5050660;28;20453;-77
2022/05/06 03:00:28;;;;;;;3.13;0.75;;;24.10;31.40;;;;;;5072990;28;20082;-76
2022/05/06 03:02:56;;;;;;;3.55;0.77;;;24.20;29.90;;;;;;5072873;28;20490;-75
2022/05/06 03:05:25;;;;;;;2.17;0.90;;;24.30;30.00;;;;;;5036335;28;20079;-75
2022/05/06 03:07:52;;;;;;;3.33;0.90;;;24.40;31.20;;;;;;5066667;28;20048;-75
2022/05/06 03:10:19;;;;;;;1.08;0.60;;;24.40;30.10;;;;;;5073635;28;20024;-76
2022/05/06 03:12:50;;;;;;;2.28;0.57;;;23.90;32.10;;;;;;5072439;28;20032;-76
2022/05/06 03:15:17;;;;;;;2.13;0.60;;;23.30;31.60;;;;;;5072175;28;20059;-75
2022/05/06 03:17:44;;;;;;;0.85;0.50;;;23.50;31.80;;;;;;5073528;28;20037;-75
2022/05/06 03:20:12;;;;;;;2.45;0.70;;;23.50;31.90;;;;;;5073393;28;20438;-75
2022/05/06 03:22:46;;;;;;;3.33;0.80;;;23.00;31.10;;;;;;5073377;28;20482;-75
2022/05/06 03:25:14;;;;;;;3.47;1.00;;;23.50;33.10;;;;;;5061111;28;20027;-75
2022/05/06 03:27:59;;;;;;;2.95;0.80;;;24.00;31.90;;;;;;5069392;28;20020;-75
2022/05/06 03:30:27;;;;;;;1.88;0.60;;;24.10;31.30;;;;;;5073305;28;20047;-76
2022/05/06 03:32:58;;;;;;;2.13;0.80;;;24.50;32.00;;;;;;5063413;28;20025;-75
2022/05/06 03:35:27;;;;;;;1.33;0.60;;;25.00;29.80;;;;;;5073247;28;20108;-74
2022/05/06 03:37:54;;;;;;;4.18;0.52;;;25.00;29.80;;;;;;5071459;28;20546;-76
2022/05/06 03:40:22;;;;;;;2.90;0.70;;;24.60;29.70;;;;;;5073100;28;20078;-75
2022/05/06 03:42:49;;;;;;;1.33;0.60;;;24.60;30.00;;;;;;5072989;28;20028;-75
2022/05/06 03:45:17;;;;;;;1.73;0.65;;;24.50;30.70;;;;;;5073012;28;20029;-75
2022/05/06 03:47:44;;;;;;;2.28;0.70;;;24.30;30.50;;;;;;5072898;28;20059;-76
2022/05/06 03:52:58;;;;;;;2.10;0.65;;;24.00;31.30;;;;;;5073022;28;20046;-75
2022/05/06 03:55:26;;;;;;;2.35;0.60;;;24.40;30.70;;;;;;5072791;28;20017;-74
2022/05/06 03:57:53;;;;;;;1.98;0.50;;;24.30;30.10;;;;;;5071362;28;20033;-76
2022/05/06 04:00:22;;;;;;;4.30;0.60;;;24.30;29.90;;;;;;5072694;28;20474;-74
2022/05/06 04:02:49;;;;;;;1.50;0.60;;;24.70;30.10;;;;;;5072779;28;20436;-74
2022/05/06 04:05:16;;;;;;;2.05;0.60;;;24.50;30.00;;;;;;5072165;28;20052;-75
2022/05/06 04:07:43;;;;;;;0.70;0.40;;;24.60;30.20;;;;;;5061073;28;20028;-74
2022/05/06 04:10:10;;;;;;;1.70;0.50;;;24.70;29.90;;;;;;5072433;28;20501;-74
2022/05/06 04:12:39;;;;;;;0.77;0.40;;;24.90;30.30;;;;;;5072454;28;20040;-75
2022/05/06 04:15:06;;;;;;;4.07;0.70;;;24.40;29.80;;;;;;5072108;28;20021;-75
2022/05/06 04:17:34;;;;;;;2.70;0.60;;;24.30;30.80;;;;;;5072549;28;20055;-75
2022/05/06 04:25:32;;;;;;;1.67;0.45;;;24.80;30.10;;;;;;5071465;28;20066;-75
2022/05/06 04:27:59;;;;;;;2.28;0.68;;;24.70;29.60;;;;;;5064659;28;20032;-74
2022/05/06 04:30:26;;;;;;;1.77;0.60;;;24.70;29.40;;;;;;5072425;28;20024;-75
2022/05/06 04:32:53;;;;;;;1.73;0.50;;;25.10;29.00;;;;;;5072543;28;20020;-75
2022/05/06 04:35:21;;;;;;;2.22;0.47;;;24.90;30.40;;;;;;5072373;28;20044;-74
2022/05/06 04:37:48;;;;;;;3.08;0.30;;;24.70;28.90;;;;;;5072371;28;20037;-75
2022/05/06 04:40:16;;;;;;;1.35;0.50;;;25.00;27.20;;;;;;5067632;28;20120;-76
2022/05/06 04:42:45;;;;;;;3.55;0.40;;;24.90;26.80;;;;;;5071280;28;20028;-75
2022/05/06 04:45:12;;;;;;;1.60;0.40;;;24.90;26.80;;;;;;5071074;28;20378;-75
2022/05/06 04:47:39;;;;;;;1.30;0.45;;;24.60;27.10;;;;;;5058751;28;20029;-75
2022/05/06 04:50:07;;;;;;;1.98;0.65;;;24.20;27.00;;;;;;5071962;28;20024;-75
2022/05/06 04:52:34;;;;;;;1.90;0.40;;;23.90;26.70;;;;;;5072262;28;20059;-75
2022/05/06 04:55:02;;;;;;;4.28;0.40;;;23.60;27.50;;;;;;5058504;28;20040;-75
2022/05/06 04:57:29;;;;;;;1.60;0.55;;;23.50;28.50;;;;;;5061605;28;20048;-75
2022/05/06 04:59:56;;;;;;;1.27;0.65;;;23.30;29.00;;;;;;5071246;28;20071;-75
2022/05/06 05:02:26;;;;;;;1.35;0.38;;;23.80;28.50;;;;;;5072133;28;20024;-75
2022/05/06 05:04:57;;;;;;;0.98;0.40;;;24.30;27.60;;;;;;5070943;28;20020;-74
2022/05/06 05:07:25;;;;;;;1.23;0.60;;;24.00;28.40;;;;;;5072164;28;20031;-74
2022/05/06 05:09:52;;;;;;;1.17;0.40;;;24.40;28.30;;;;;;5070765;28;20016;-74
2022/05/06 05:12:19;;;;;;;1.20;0.40;;;24.40;27.90;;;;;;5070822;28;20112;-75
2022/05/06 05:14:47;;;;;;;1.55;0.50;;;24.10;28.30;;;;;;5063673;28;20025;-74
2022/05/06 05:17:14;;;;;;;1.42;0.50;;;23.90;28.30;;;;;;5070950;28;20123;-74
2022/05/06 05:19:42;;;;;;;1.73;0.30;;;23.70;28.90;;;;;;5054278;28;20394;-73
2022/05/06 05:22:09;;;;;;;3.80;0.60;;;23.60;28.20;;;;;;5071804;28;20031;-74
2022/05/06 05:24:36;;;;;;;1.48;0.47;;;23.30;28.80;;;;;;5074781;28;20020;-74
2022/05/06 05:27:08;;;;;;;3.85;0.90;;;23.20;28.90;;;;;;5073192;28;20059;-75
2022/05/06 05:29:35;;;;;;;3.13;0.30;;;23.20;29.30;;;;;;5074409;28;20025;-74
2022/05/06 05:32:02;;;;;;;1.85;0.57;;;23.10;30.30;;;;;;5070676;28;20565;-74
2022/05/06 05:34:30;;;;;;;1.23;0.40;;;22.90;30.00;;;;;;5074201;28;20035;-72
2022/05/06 05:36:57;;;;;;;2.78;0.43;;;22.70;29.50;;;;;;5075317;28;20032;-74
2022/05/06 05:39:24;;;;;;;1.63;0.30;;;22.40;30.00;;;;;;5075379;28;20474;-74
2022/05/06 05:41:51;;;;;;;1.38;0.38;;;22.50;31.50;;;;;;5075451;28;20027;-73
2022/05/06 05:49:49;;;;;;;2.30;0.50;;;22.40;30.80;;;;;;5070221;28;20027;-74
2022/05/06 05:52:17;;;;;;;1.63;0.50;;;22.50;30.00;;;;;;5075209;28;20017;-74
2022/05/06 05:54:44;;;;;;;1.60;0.50;;;22.20;30.70;;;;;;5073892;28;20087;-72
2022/05/06 05:57:12;;;;;;;2.60;0.57;;;22.10;31.30;;;;;;5075017;28;20093;-73
2022/05/06 05:59:41;;;;;;;1.33;0.20;;;22.30;31.60;;;;;;5074964;28;20035;-73
2022/05/06 06:02:10;;;;;;;1.25;0.55;;;22.00;31.70;;;;;;5075040;28;20034;-73
2022/05/06 06:04:39;;;;;;;2.42;0.60;;;21.90;32.10;;;;;;5055606;28;20028;-73
2022/05/06 06:07:06;;;;;;;3.25;0.75;;;21.90;32.60;;;;;;5074899;28;20029;-72
2022/05/06 06:09:33;;;;;;;2.17;0.70;;;21.70;32.70;;;;;;5074745;28;20533;-72
2022/05/06 06:12:00;;;;;;;2.15;0.65;;;21.60;32.20;;;;;;5074768;28;20056;-73
2022/05/06 06:14:28;;;;;;;1.13;0.40;;;21.50;33.50;;;;;;5074533;28;20043;-73
2022/05/06 06:16:56;;;;;;;1.33;0.50;;;21.50;33.70;;;;;;5074763;28;20032;-74
2022/05/06 06:19:23;;;;;;;3.35;0.57;;;21.40;33.60;;;;;;5074617;28;20017;-73
2022/05/06 06:21:50;;;;;;;2.13;0.70;;;20.60;35.10;;;;;;5069346;28;20469;-75
2022/05/06 06:24:19;;;;;;;1.60;0.50;;;20.20;35.90;;;;;;5068522;28;20025;-73
2022/05/06 06:26:46;;;;;;;2.75;0.75;;;20.10;35.70;;;;;;5070927;28;20024;-73
2022/05/06 06:29:14;;;;;;;3.45;0.63;;;20.10;36.10;;;;;;5073202;28;20029;-74
2022/05/06 06:31:41;;;;;;;4.97;0.68;;;20.50;35.40;;;;;;5056429;28;20089;-73
2022/05/06 06:34:09;;;;;;;2.13;0.60;;;20.40;36.00;;;;;;5073089;28;20462;-75
2022/05/06 06:36:36;;;;;;;3.78;0.95;;;19.90;36.20;;;;;;5072820;28;20511;-73
2022/05/06 06:39:03;;;;;;;2.08;0.70;;;19.30;37.80;;;;;;5065154;28;20025;-73
2022/05/06 06:41:30;;;;;;;11.10;1.05;;;18.90;38.20;;;;;;5060206;28;20025;-73
2022/05/06 06:44:00;;;;;;;3.72;1.08;;;18.50;39.40;;;;;;5059681;28;20031;-74
2022/05/06 06:46:28;;;;;;;3.92;2.58;;;18.20;40.20;;;;;;5060264;28;20041;-74
2022/05/06 06:48:55;;;;;;;15.15;9.45;;;17.90;40.20;;;;;;5064364;28;20025;-73
2022/05/06 06:51:22;;;;;;;4.75;1.65;;;17.70;41.10;;;;;;5055693;28;20130;-73
2022/05/06 06:53:50;;;;;;;7.13;1.23;;;17.50;42.10;;;;;;5063254;28;20466;-74
2022/05/06 06:56:17;;;;;;;9.38;1.15;;;17.30;41.40;;;;;;5048904;28;20024;-73
2022/05/06 06:58:44;;;;;;;2.42;1.10;;;17.30;41.90;;;;;;5056070;28;20032;-74
2022/05/06 07:01:11;;;;;;;2.55;0.90;;;17.20;42.50;;;;;;5073097;28;20028;-73
2022/05/06 07:03:39;;;;;;;2.42;0.80;;;16.90;42.30;;;;;;5069166;28;20025;-74
2022/05/06 07:11:56;;;;;;;4.13;1.00;;;16.60;43.40;;;;;;5058838;28;20075;-74
2022/05/06 07:14:25;;;;;;;4.15;0.70;;;16.40;44.20;;;;;;5065740;28;20025;-74
2022/05/06 07:16:53;;;;;;;4.13;0.70;;;16.30;44.20;;;;;;5073429;28;20481;-75
2022/05/06 07:19:20;;;;;;;9.85;5.35;;;16.20;44.60;;;;;;5073736;28;20083;-76
2022/05/06 07:21:51;;;;;;;11.25;7.13;;;16.10;44.40;;;;;;5073467;28;20032;-75
2022/05/06 07:24:19;;;;;;;4.57;1.75;;;16.10;44.90;;;;;;5072353;28;20023;-74
2022/05/06 07:26:47;;;;;;;3.92;1.15;;;16.00;44.00;;;;;;5063487;28;20383;-73
2022/05/06 07:29:14;;;;;;;3.92;1.15;;;15.80;44.80;;;;;;5060554;28;20466;-74
2022/05/06 07:31:42;;;;;;;2.85;1.23;;;15.60;45.50;;;;;;5069866;28;20441;-76
2022/05/06 07:34:11;;;;;;;3.83;1.00;;;15.30;46.40;;;;;;5073294;28;20044;-73
2022/05/06 07:36:44;;;;;;;2.85;1.00;;;15.00;48.10;;;;;;5072842;28;20020;-77
2022/05/06 07:39:16;;;;;;;4.03;0.90;;;14.80;49.10;;;;;;5071810;28;20494;-74
2022/05/06 07:41:43;;;;;;;3.08;1.20;;;14.60;49.60;;;;;;5072081;28;20024;-78
2022/05/06 07:44:10;;;;;;;4.28;1.40;;;14.40;49.70;;;;;;5072976;28;20364;-73
2022/05/06 07:46:38;;;;;;;5.85;1.80;;;14.30;50.50;;;;;;5058263;28;20044;-76
2022/05/06 07:49:06;;;;;;;6.10;2.70;;;14.20;50.20;;;;;;5063977;28;20024;-76
2022/05/06 07:51:33;;;;;;;9.57;5.95;;;14.40;48.90;;;;;;5072224;28;20107;-75
2022/05/06 07:54:00;;;;;;;7.90;4.53;;;14.30;49.00;;;;;;5067900;28;20543;-75
2022/05/06 07:56:31;;;;;;;16.83;8.70;;;14.40;50.50;;;;;;5070297;28;20028;-76
2022/05/06 07:58:58;;;;;;;22.08;13.73;;;14.40;49.40;;;;;;5064667;28;20483;-75
2022/05/06 08:04:48;;;;;;;5.90;3.15;;;14.00;51.60;;;;;;5066899;28;20060;-74
2022/05/06 08:07:05;;;;;;;36.72;25.67;;;13.90;51.20;;;;;;5069352;28;20037;-73
2022/05/06 08:09:33;;;;;;;28.75;18.58;;;13.80;52.00;;;;;;5068410;28;20093;-73
2022/05/06 08:12:04;;;;;;;13.32;7.60;;;13.90;51.80;;;;;;5039834;28;20031;-74
2022/05/06 08:14:31;;;;;;;10.23;3.65;;;13.70;55.10;;;;;;5065095;28;20039;-74
2022/05/06 08:16:59;;;;;;;6.28;2.80;;;13.70;53.70;;;;;;5059766;28;20103;-74
2022/05/06 08:19:27;;;;;;;6.90;2.55;;;13.50;54.80;;;;;;5065656;28;20023;-73
2022/05/06 08:21:54;;;;;;;7.70;2.40;;;13.20;55.30;;;;;;5059590;28;20029;-75
2022/05/06 08:24:22;;;;;;;6.72;2.33;;;13.10;56.30;;;;;;5064974;28;20107;-73
2022/05/06 08:26:49;;;;;;;8.23;2.45;;;12.90;58.10;;;;;;5059187;28;20371;-73
2022/05/06 08:29:16;;;;;;;3.38;1.70;;;12.60;59.40;;;;;;5066526;28;20025;-74
2022/05/06 08:31:43;;;;;;;;;;;12.40;60.70;;;;;;5051912;28;20479;-74
2022/05/06 08:34:12;;;;;;;4.60;1.90;;;12.40;60.40;;;;;;5067420;28;19962;-72
2022/05/06 08:36:43;;;;;;;9.30;3.65;;;12.50;58.50;;;;;;5071830;28;20424;-72
2022/05/06 08:39:11;;;;;;;14.85;5.47;;;12.70;57.60;;;;;;5065876;28;20024;-70
2022/05/06 08:41:39;;;;;;;4.38;1.67;;;12.90;56.40;;;;;;5069532;28;20033;-72
2022/05/06 08:52:36;;;;;;;3.70;0.95;;;12.90;57.80;;;;;;5071883;28;20024;-74
2022/05/06 08:55:04;;;;;;;4.05;1.30;;;12.70;59.00;;;;;;5070340;28;20052;-73
2022/05/06 08:57:32;;;;;;;2.83;1.25;;;12.50;61.20;;;;;;5054170;28;20032;-74
2022/05/06 08:59:58;;;;;;;;;;;12.30;62.80;;;;;;5074556;28;20045;-73
2022/05/06 09:02:26;;;;;;;3.95;1.20;;;12.20;61.20;;;;;;5074541;28;19904;-72
2022/05/06 09:04:53;;;;;;;10.90;7.13;;;12.00;62.50;;;;;;5075706;28;20029;-71
2022/05/06 09:07:25;;;;;;;30.35;18.33;;;11.80;62.50;;;;;;5066650;28;20063;-73
2022/05/06 09:10:11;;;;;;;14.70;8.10;;;11.60;64.00;;;;;;5067155;28;20013;-72
2022/05/06 09:12:42;;;;;;;6.22;3.03;;;11.50;63.80;;;;;;5073340;28;20378;-72
2022/05/06 09:17:58;;;;;;;6.72;3.83;;;11.30;64.50;;;;;;5074715;28;20043;-72
2022/05/06 09:20:26;;;;;;;16.30;9.52;;;11.20;65.10;;;;;;5075268;28;20031;-73
2022/05/06 09:22:54;;;;;;;10.88;4.15;;;11.10;66.20;;;;;;5074205;28;20367;-73
2022/05/06 09:25:51;;;;;;;11.75;5.65;;;11.10;65.70;;;;;;5073740;28;20119;-73
2022/05/06 09:28:24;;;;;;;5.28;2.80;;;11.20;65.70;;;;;;5071828;28;20037;-73
2022/05/06 09:31:04;;;;;;;4.38;1.40;;;11.20;66.00;;;;;;5065205;28;20029;-72
2022/05/06 09:33:35;;;;;;;3.78;0.90;;;11.20;64.30;;;;;;5068758;28;20039;-72
2022/05/06 09:36:25;;;;;;;2.40;0.85;;;11.30;63.50;;;;;;5069039;28;20016;-73
2022/05/06 09:39:09;;;;;;;2.90;0.90;;;11.30;63.60;;;;;;5075364;28;20107;-73
2022/05/06 09:41:40;;;;;;;1.85;0.80;;;11.40;63.00;;;;;;5064068;28;20025;-72
2022/05/06 09:44:09;;;;;;;49.50;31.10;;;11.30;63.50;;;;;;5084389;28;20070;-70
2022/05/06 09:46:37;;;;;;;57.45;36.92;;;11.30;63.10;;;;;;5068785;28;20086;-70
2022/05/06 09:49:05;;;;;;;16.33;10.82;;;11.20;64.50;;;;;;5040731;28;20394;-71
2022/05/06 09:51:34;;;;;;;17.40;12.18;;;11.20;64.00;;;;;;5075230;28;20025;-70
2022/05/06 09:54:02;;;;;;;22.67;17.08;;;11.00;64.40;;;;;;5058075;28;20025;-70
2022/05/06 09:56:30;;;;;;;12.77;6.40;;;10.90;65.00;;;;;;5047527;28;20077;-70
2022/05/06 09:58:57;;;;;;;4.07;1.40;;;10.80;65.50;;;;;;5072855;28;20024;-71
2022/05/06 10:01:25;;;;;;;6.82;1.10;;;10.60;66.20;;;;;;5075011;28;20025;-71
2022/05/06 10:03:54;;;;;;;;;;;10.50;67.10;;;;;;5066687;28;20024;-71
2022/05/06 10:06:24;;;;;;;15.77;6.65;;;10.40;66.90;;;;;;5072903;28;20289;-70
2022/05/06 10:08:56;;;;;;;18.85;7.82;;;10.40;67.50;;;;;;5074133;28;20090;-71
2022/05/06 10:11:28;;;;;;;4.25;1.73;;;10.30;68.00;;;;;;5073662;28;20378;-71
2022/05/06 10:13:58;;;;;;;3.75;1.33;;;10.20;68.30;;;;;;5073588;28;20029;-70
2022/05/06 10:16:46;;;;;;;10.25;1.60;;;10.10;69.00;;;;;;5049862;28;20025;-72
2022/05/06 10:19:37;;;;;;;6.15;2.25;;;10.20;69.00;;;;;;5060084;28;20025;-71
2022/05/06 10:22:05;;;;;;;11.40;3.13;;;10.10;69.10;;;;;;5060952;28;20033;-73
2022/05/06 10:24:48;;;;;;;14.05;5.03;;;10.20;69.10;;;;;;5063246;28;20078;-73
2022/05/06 10:33:22;;;;;;;18.60;9.32;;;10.30;68.90;;;;;;5057628;28;20534;-71
2022/05/06 10:35:49;;;;;;;23.27;8.35;;;10.20;70.20;;;;;;5068196;28;20115;-71
2022/05/06 10:38:19;;;;;;;;;;;10.10;70.70;;;;;;5066427;28;20040;-73
2022/05/06 10:41:02;;;;;;;41.10;20.10;;;9.90;71.70;;;;;;5062196;28;19915;-71
2022/05/06 10:43:41;;;;;;;84.38;51.47;;;9.70;72.50;;;;;;5063923;28;20064;-72
2022/05/06 10:46:09;;;;;;;38.92;18.20;;;9.60;73.50;;;;;;5074085;28;20032;-73
2022/05/06 10:48:36;;;;;;;12.50;6.13;;;9.40;74.10;;;;;;5071289;28;20040;-72
2022/05/06 10:51:36;;;;;;;9.18;3.00;;;9.40;74.90;;;;;;5064531;28;20127;-74
2022/05/06 10:54:03;;;;;;;8.43;1.85;;;9.30;74.20;;;;;;5038258;28;20115;-73
2022/05/06 10:56:31;;;;;;;;;;;9.20;74.80;;;;;;5056140;28;20021;-73
2022/05/06 10:58:58;;;;;;;5.30;1.17;;;9.10;74.60;;;;;;5072414;28;19908;-73
2022/05/06 11:01:26;;;;;;;3.05;0.80;;;9.10;74.70;;;;;;5073701;28;20738;-73
2022/05/06 11:03:54;;;;;;;4.25;1.02;;;9.10;75.40;;;;;;5073788;28;20086;-74
2022/05/06 11:06:24;;;;;;;4.78;0.90;;;9.10;75.70;;;;;;5072690;28;20017;-74
2022/05/06 11:08:51;;;;;;;6.13;1.20;;;9.00;75.70;;;;;;5056168;28;20060;-74
2022/05/06 11:11:19;;;;;;;1.80;0.75;;;9.00;75.80;;;;;;5070352;28;20071;-74
2022/05/06 11:13:51;;;;;;;6.68;1.05;;;8.90;75.90;;;;;;5056013;28;20107;-74
2022/05/06 11:16:20;;;;;;;5.05;1.02;;;8.90;76.40;;;;;;5068274;28;20024;-75
2022/05/06 11:18:48;;;;;;;6.38;1.20;;;8.80;76.60;;;;;;5072163;28;20031;-74
2022/05/06 11:21:27;;;;;;;3.28;1.20;;;8.80;76.80;;;;;;5050512;28;20420;-74
2022/05/06 11:23:54;;;;;;;4.93;1.02;;;8.80;77.10;;;;;;5060968;28;20032;-74
2022/05/06 11:26:26;;;;;;;4.18;1.10;;;8.70;77.50;;;;;;5068217;28;20017;-72
2022/05/06 11:29:03;;;;;;;15.15;5.90;;;8.70;77.30;;;;;;5058527;28;20033;-73
2022/05/06 11:31:31;;;;;;;11.65;5.45;;;8.60;77.80;;;;;;5044913;28;20074;-71
2022/05/06 11:34:03;;;;;;;23.75;12.63;;;8.60;78.10;;;;;;5058024;28;20035;-77
2022/05/06 11:36:31;;;;;;;3.20;1.65;;;8.50;79.10;;;;;;5068566;28;20021;-75
2022/05/06 11:38:57;;;;;;;;;;;8.50;78.90;;;;;;5045555;28;20025;-74
2022/05/06 11:41:25;;;;;;;4.65;1.30;;;8.30;79.40;;;;;;5070916;28;19909;-74
2022/05/06 11:44:03;;;;;;;8.55;1.63;;;8.30;79.50;;;;;;5062212;28;20112;-73
2022/05/06 11:49:29;;;;;;;8.38;1.70;;;8.30;78.60;;;;;;5061428;28;20040;-74
2022/05/06 11:51:56;;;;;;;19.95;2.25;;;8.20;78.30;;;;;;5080147;28;20097;-72
2022/05/06 11:54:24;;;;;;;11.77;2.00;;;8.30;78.70;;;;;;5071722;28;20107;-74
2022/05/06 11:56:51;;;;;;;7.60;1.75;;;8.20;78.30;;;;;;5072871;28;20474;-74
2022/05/06 11:59:18;;;;;;;;;;;8.10;78.70;;;;;;5047060;28;20040;-74
2022/05/06 12:01:45;;;;;;;52.95;22.85;;;8.10;79.00;;;;;;5063350;28;19931;-72
2022/05/06 12:04:12;;;;;;;53.28;27.08;;;8.00;79.40;;;;;;5039972;28;20117;-74
2022/05/06 12:06:44;;;;;;;28.65;11.95;;;7.90;79.60;;;;;;5058301;28;20039;-76
2022/05/06 12:09:12;;;;;;;7.32;2.55;;;7.90;80.00;;;;;;5054382;28;20037;-73
2022/05/06 12:11:43;;;;;;;5.25;1.98;;;7.80;80.10;;;;;;5070383;28;20020;-73
2022/05/06 12:14:17;;;;;;;9.10;2.10;;;7.80;80.90;;;;;;5057327;28;20024;-75
2022/05/06 12:16:57;;;;;;;7.65;1.90;;;7.80;81.80;;;;;;5069430;28;20532;-73
2022/05/06 12:19:37;;;;;;;8.20;2.28;;;7.80;81.40;;;;;;5051772;28;20045;-74
2022/05/06 12:22:12;;;;;;;9.65;1.83;;;7.80;81.40;;;;;;5065618;28;20020;-72
2022/05/06 12:24:55;;;;;;;5.47;1.75;;;7.80;81.10;;;;;;5056946;28;20344;-72
2022/05/06 12:27:29;;;;;;;5.30;1.25;;;7.70;82.00;;;;;;5047599;28;20069;-73
2022/05/06 12:29:57;;;;;;;5.10;1.40;;;7.60;82.20;;;;;;5068590;28;20013;-73
2022/05/06 12:32:25;;;;;;;5.25;1.20;;;7.50;82.70;;;;;;5069599;28;20033;-73
2022/05/06 12:35:07;;;;;;;;;;;7.50;82.80;;;;;;5052728;28;20032;-73
2022/05/06 12:37:35;;;;;;;2.45;1.27;;;7.50;82.50;;;;;;5062691;28;20361;-72
2022/05/06 12:40:03;;;;;;;4.88;1.85;;;7.40;82.30;;;;;;5062436;28;20028;-73
2022/05/06 12:42:30;;;;;;;4.60;1.75;;;7.40;82.40;;;;;;5057862;28;20090;-71
2022/05/06 12:45:03;;;;;;;4.05;1.20;;;7.30;82.90;;;;;;5062789;28;20021;-74
2022/05/06 12:50:16;;;;;;;7.28;1.42;;;7.10;84.30;;;;;;5063067;28;20031;-73
2022/05/06 12:52:43;;;;;;;4.32;1.27;;;7.10;85.00;;;;;;5070968;28;20074;-73
2022/05/06 12:55:11;;;;;;;4.68;1.27;;;7.10;85.30;;;;;;5072215;28;20028;-73
2022/05/06 12:57:38;;;;;;;8.07;1.30;;;7.10;85.30;;;;;;5068581;28;20032;-73
2022/05/06 13:00:06;;;;;;;4.63;1.30;;;7.00;85.10;;;;;;5072318;28;20033;-73
2022/05/06 13:02:33;;;;;;;6.18;1.23;;;6.90;85.20;;;;;;5066412;28;20533;-73
2022/05/06 13:05:00;;;;;;;;;;;6.90;85.60;;;;;;5069970;28;20020;-73
2022/05/06 13:07:27;;;;;;;3.55;1.20;;;6.80;86.40;;;;;;5062829;28;19948;-74
2022/05/06 13:09:54;;;;;;;;;;;6.80;86.60;;;;;;5059642;28;20052;-73
2022/05/06 13:12:21;;;;;;;3.25;1.30;;;6.80;86.30;;;;;;5059747;28;20362;-72
2022/05/06 13:14:48;;;;;;;3.40;1.60;;;6.80;86.50;;;;;;5071857;28;20111;-74
2022/05/06 13:17:16;;;;;;;3.38;1.20;;;6.80;87.00;;;;;;5070476;28;20032;-74
2022/05/06 13:19:43;;;;;;;6.30;1.40;;;6.80;86.00;;;;;;5070837;28;20052;-74
2022/05/06 13:22:10;;;;;;;6.75;1.70;;;6.80;86.20;;;;;;5070794;28;20033;-73
2022/05/06 13:24:37;;;;;;;6.85;1.70;;;6.80;86.90;;;;;;5070540;28;20378;-75
2022/05/06 13:27:05;;;;;;;4.68;1.70;;;6.80;87.00;;;;;;5066096;28;20082;-73
2022/05/06 13:29:32;;;;;;;5.43;1.33;;;6.80;87.10;;;;;;5056347;28;20498;-76
2022/05/06 13:31:59;;;;;;;6.78;1.45;;;6.70;87.00;;;;;;5076888;28;20033;-73
2022/05/06 13:34:26;;;;;;;2.90;1.25;;;6.60;86.30;;;;;;5066494;28;20237;-74
2022/05/06 13:36:54;;;;;;;8.10;1.83;;;6.60;87.40;;;;;;5069310;28;20039;-74
2022/05/06 13:39:21;;;;;;;6.90;1.48;;;6.60;89.30;;;;;;5071321;28;20039;-73
2022/05/06 13:41:48;;;;;;;3.80;1.65;;;6.50;88.60;;;;;;5060854;28;20124;-71
2022/05/06 13:44:15;;;;;;;4.47;1.80;;;6.50;88.90;;;;;;5058487;28;20423;-73
2022/05/06 13:46:43;;;;;;;2.60;1.60;;;6.40;89.60;;;;;;5059987;28;20064;-73
2022/05/06 13:49:10;;;;;;;7.07;1.85;;;6.40;89.60;;;;;;5069717;28;20037;-74
2022/05/06 13:51:37;;;;;;;4.47;1.80;;;6.30;89.90;;;;;;5074847;28;20374;-73
2022/05/06 13:54:05;;;;;;;2.88;1.48;;;6.30;90.00;;;;;;5065210;28;20036;-74
2022/05/06 13:59:18;;;;;;;4.05;1.30;;;6.20;89.90;;;;;;5056218;28;20040;-73
2022/05/06 14:01:47;;;;;;;4.18;1.52;;;6.20;89.90;;;;;;5066302;28;20031;-74
2022/05/06 14:04:14;;;;;;;3.88;1.48;;;6.10;89.80;;;;;;5074718;28;20440;-74
2022/05/06 14:06:41;;;;;;;4.28;1.50;;;6.10;90.10;;;;;;5065274;28;20028;-73
2022/05/06 14:09:08;;;;;;;;;;;6.20;90.50;;;;;;5075048;28;20108;-73
2022/05/06 14:11:35;;;;;;;6.03;1.30;;;6.40;89.90;;;;;;5074234;28;19994;-73
2022/05/06 14:14:03;;;;;;;3.35;1.35;;;6.50;88.20;;;;;;5063135;28;20035;-73
2022/05/06 14:16:29;;;;;;;;;;;6.30;88.60;;;;;;5064908;28;20112;-73
2022/05/06 14:18:57;;;;;;;3.08;1.42;;;6.20;88.80;;;;;;5068834;28;20004;-73
2022/05/06 14:21:25;;;;;;;5.22;1.50;;;6.10;89.10;;;;;;5059245;28;20028;-73